Welcome to our Virtual Airline
Sign-in:

Flight MFC33591

  • Submitted By: Igor Doksas
  • Departure Airport: Koyukuk (KYU)
  • Arrival Airport: Kaltag (KAL)
  • Aircraft: DHC2 BEAVERF (N002MM_FL)
  • Flight Time: 00.27.47
  • Date Submitted: 2018/09/12
  • Route: STOP-OVER AT NULATO (NUL)
  • Status: Accepted
Flight Details
Gross Revenue:
(5 load / $ 44.00 per unit
$ 220.00
Fuel Cost:
(34.0194 fuel used @ 5.1 / unit)
$ 173.50

Additional Log Information:

View Log

FS[12:39] ----- Flight Opened -----
FS[12:39] Cigar Box - 1.1.4.0
FS[12:39] FS: FSX
FS[12:39] FSUIPC: v4.966
FS[12:39] Flight Number: MFC33591
FS[12:39] FS Aircraft: DHC-2A Misty Moorings 3 Tundra Wheels dirty
FS[12:39] FS Model: DHC2
FS[12:39] FS Type: DEHAVILLAND
FS[12:39] Departure: KYU
FS[12:39] Arrival: KAL
FS[12:39] Flight Level: 2500
FS[12:39] Flight Type: H
FS[12:39] Passengers: 5
FS[12:39] FOB: 210 lbs
FS[12:39] Gate: 2 - KYU
FS[12:39] Crash Detection: Disabled
FS[12:39] Crash Detection Aircraft: Disabled
FS[12:39] Engines: 1 Piston
FS[12:39] NOTE: Boarding has started
FS[12:39] FS: Paused
FS[12:39] Parking Brake: Engaged
FS[12:39] Main Door Closed
FS[12:39] COM1: 128.30
FS[12:39] COM2: 127.80
FS[12:39] Transponder: 1200
FS[12:39] NAV1: 113.70
FS[12:39] NAV2: 110.60
FS[12:39] ADF1: 284.0
FS[12:39] ADF2: 240.0
FS[12:39] Navigation Mode: NAV
FS[12:39] FS: Unpaused
FS[12:40] Engine 1: Started
FS[12:40] Light Data: Beacon ON
FS[12:40] Light Data: Navigation ON
FS[12:40] Light Data: Landing lights ON
FS[12:40] NOTE: Pushing back
FS[12:40] Parking Brake: Released
FS[12:42] NOTE: Taxi started
FS[12:42] Parking Brake: Engaged
FS[12:42] Flaps: Position 2
FS[12:42] Parking Brake: Released
FS[12:42] NOTE: ----- TAKE OFF -----
FS[12:42] GS: 40 knots
FS[12:42] TAS: 40 knots
FS[12:42] IAS: 40 knots
FS[12:42] VS: 18 fpm
FS[12:42] FOB: 209 lbs
FS[12:42] Heading: 272°
FS[12:42] Pitch: 10°
FS[12:42] Bank: 0°
FS[12:42] Aircraft Weight: 3449.66 lbs
FS[12:42] Nearest Airport: KYU
FS[12:42] Distance: 0.27 miles
FS[12:42] Runway: ???
FS[12:42] Ground Surface: Gravel
FS[12:42] Ground Condition: Normal
FS[12:42] NOTE: Weather Report
FS[12:42] Wind Heading: 346°
FS[12:42] Wind Speed: 0 knots
FS[12:42] OAT: 14° C
FS[12:42] TAT: 14° C
FS[12:42] Precipitation: None
FS[12:42] Dew Point: 4° C
FS[12:42] Visibility: 62 miles
FS[12:42] METAR: No METAR available for KYU.
FS[12:42] NOTE: Climb started
FS[12:42] Flaps: Position 0
FS[12:42] GS: 83 knots
FS[12:42] TAS: 84 knots
FS[12:42] IAS: 84 knots
FS[12:42] VS: 316 fpm
FS[12:43] View Mode: Virtual Cockpit
FS[12:45] NOTE: TOC reached
FS[12:45] NOTE: Cruise started
FS[12:45] GS: 138 knots
FS[12:45] TAS: 138 knots
FS[12:45] IAS: 133 knots
FS[12:45] VS: 179 fpm
FS[12:45] FOB: 198 lbs
FS[12:45] Heading: 219°
FS[12:45] Pitch: 0°
FS[12:45] Bank: 11°
FS[12:45] Aircraft Weight: 3438.26 lbs
FS[12:46] Flaps: Position 1
FS[12:46] GS: 95 knots
FS[12:46] TAS: 96 knots
FS[12:46] IAS: 93 knots
FS[12:46] VS: 645 fpm
FS[12:46] Flaps: Position 2
FS[12:46] GS: 85 knots
FS[12:46] TAS: 87 knots
FS[12:46] IAS: 84 knots
FS[12:46] VS: 484 fpm
FS[12:46] Flaps: Position 3
FS[12:46] GS: 77 knots
FS[12:46] TAS: 79 knots
FS[12:46] IAS: 76 knots
FS[12:46] VS: 574 fpm
FS[12:47] NOTE: TOD reached
FS[12:47] NOTE: Descent started
FS[12:47] GS: 68 knots
FS[12:47] TAS: 69 knots
FS[12:47] IAS: 66 knots
FS[12:47] VS: -833 fpm
FS[12:47] FOB: 193 lbs
FS[12:47] Heading: 183°
FS[12:47] Pitch: 9°
FS[12:47] Bank: 0°
FS[12:47] Aircraft Weight: 3433.09 lbs
FS[12:47] NOTE: On approach
FS[12:50] NOTE: ----- LANDED -----
FS[12:50] Landing Rate: -80.74 fpm
FS[12:50] GS: 50 knots
FS[12:50] TAS: 51 knots
FS[12:50] IAS: 51 knots
FS[12:50] VS: -69 fpm
FS[12:50] FOB: 186 lbs
FS[12:50] Heading: 204°
FS[12:50] Pitch: 2°
FS[12:50] Bank: 1°
FS[12:50] Aircraft Weight: 3426.38 lbs
FS[12:50] Nearest Airport: KYU
FS[12:50] Distance: 11.58 miles
FS[12:50] Runway: 20 - NUL
FS[12:50] Ground Surface: Forest
FS[12:50] Ground Condition: Normal
FS[12:50] NOTE: Weather Report
FS[12:50] Wind Heading: 346°
FS[12:50] Wind Speed: 0 knots
FS[12:50] OAT: 13° C
FS[12:50] TAT: 14° C
FS[12:50] Precipitation: None
FS[12:50] Dew Point: 3° C
FS[12:50] Visibility: 62 miles
FS[12:50] METAR: KALB 121751Z 34003KT 10SM SCT013 BKN022 OVC028 23/18 A3028 RMK AO2 SLP251 60000 T02280183 10233 20194 58006KALI 121753Z AUTO 05010KT 10SM BKN019 BKN025 OVC043 28/23 A2992 RMK AO2 SLP129 T02780233 10283 20228 58002KALK 121756Z AUTO 10SM CLR 31/04 A3013 RMK AO2 SLP101 T03060039 10306 20167 58001KALM 121755Z AUTO 25003KT 10SM CLR 30/09 A3009 RMK AO2KALN 121750Z 12007KT 10SM SCT041 25/16 A3018KALO 121754Z 18009KT 10SM FEW049 27/16 A3011 RMK AO2 SLP193 T02720156 10272 20150 58001KALS 121752Z AUTO VRB04KT 10SM CLR 24/M01 A3021 RMK AO2 SLP142 T02441011 10244 20011 58010KALW 121753Z 23007KT 10SM CLR 18/06 A2992 RMK AO2 SLP128 T01830061 10183 20111 58001KALX 121755Z AUTO 10003KT 10SM CLR 30/25 A3009 RMK AO2 T03040245 10304 20218
FS[12:50] View Mode: Virtual Cockpit
FS[12:51] NOTE: Taxi started
FS[12:51] NOTE: Arrived
FS[12:51] Parking Brake: Engaged
FS[12:51] Flaps: Position 2
FS[12:52] Parking Brake: Released
FS[12:52] Flaps: Position 0
FS[12:52] GS: 83 knots
FS[12:52] TAS: 85 knots
FS[12:52] IAS: 85 knots
FS[12:52] VS: 430 fpm
FS[12:52] View Mode: Virtual Cockpit
FS[12:53] FS: Paused
FS[12:53] FS: Unpaused
FS[13:02] Flaps: Position 1
FS[13:02] GS: 99 knots
FS[13:02] TAS: 99 knots
FS[13:02] IAS: 95 knots
FS[13:02] VS: 85 fpm
FS[13:02] Flaps: Position 2
FS[13:02] GS: 91 knots
FS[13:02] TAS: 92 knots
FS[13:02] IAS: 88 knots
FS[13:02] VS: 435 fpm
FS[13:02] Flaps: Position 3
FS[13:02] GS: 77 knots
FS[13:02] TAS: 79 knots
FS[13:02] IAS: 76 knots
FS[13:02] VS: 612 fpm
FS[13:02] Recovery: Flight Saved
FS[13:07] NOTE: ----- LANDED -----
FS[13:07] Landing Rate: -173.78 fpm
FS[13:07] GS: 50 knots
FS[13:07] TAS: 51 knots
FS[13:07] IAS: 51 knots
FS[13:07] VS: -175 fpm
FS[13:07] FOB: 135 lbs
FS[13:07] Heading: 199°
FS[13:07] Pitch: 1°
FS[13:07] Bank: 0°
FS[13:07] Aircraft Weight: 3375.10 lbs
FS[13:07] Nearest Airport: KAL
FS[13:07] Distance: 0.61 miles
FS[13:07] Runway: 21 - KAL
FS[13:07] Ground Surface: Gravel
FS[13:07] Ground Condition: Normal
FS[13:07] NOTE: Weather Report
FS[13:07] Wind Heading: 346°
FS[13:07] Wind Speed: 0 knots
FS[13:07] OAT: 14° C
FS[13:07] TAT: 15° C
FS[13:07] Precipitation: None
FS[13:07] Dew Point: 4° C
FS[13:07] Visibility: 62 miles
FS[13:07] METAR: KALB 121751Z 34003KT 10SM SCT013 BKN022 OVC028 23/18 A3028 RMK AO2 SLP251 60000 T02280183 10233 20194 58006KALI 121753Z AUTO 05010KT 10SM BKN019 BKN025 OVC043 28/23 A2992 RMK AO2 SLP129 T02780233 10283 20228 58002KALK 121756Z AUTO 10SM CLR 31/04 A3013 RMK AO2 SLP101 T03060039 10306 20167 58001KALM 121755Z AUTO 25003KT 10SM CLR 30/09 A3009 RMK AO2KALN 121750Z 12007KT 10SM SCT041 25/16 A3018KALO 121754Z 18009KT 10SM FEW049 27/16 A3011 RMK AO2 SLP193 T02720156 10272 20150 58001KALS 121752Z AUTO VRB04KT 10SM CLR 24/M01 A3021 RMK AO2 SLP142 T02441011 10244 20011 58010KALW 121753Z 23007KT 10SM CLR 18/06 A2992 RMK AO2 SLP128 T01830061 10183 20111 58001KALX 121755Z AUTO 10003KT 10SM CLR 30/25 A3009 RMK AO2 T03040245 10304 20218
FS[13:07] View Mode: Virtual Cockpit
FS[13:07] Flaps: Position 0
FS[13:08] Parking Brake: Engaged
FS[13:08] Light Data: Landing lights OFF
FS[13:08] Light Data: Navigation OFF
FS[13:08] Engine 1: Stopped
FS[13:08] Light Data: Beacon OFF
FS[13:08] Gate: 2 - KAL
FS[13:08] NOTE: Flight Completed
FS[13:08] FS Aircraft: DHC-2A Misty Moorings 3 Tundra Wheels dirty
FS[13:08] FS Model: DHC2
FS[13:08] FS Type: DEHAVILLAND
FS[13:08] FOB: 135 lbs
FS[13:08] Fuel Used: 75 lbs
FS[13:08] Flight Time: 00:27:47
FS[13:08] Flight Time (Dawn): 00:00:00
FS[13:08] Flight Time (Day): 00:27:47
FS[13:08] Flight Time (Dusk): 00:00:00
FS[13:08] Flight Time (Night): 00:00:00
FS[13:08] Total Landings: 2
FS[13:08] MaxSim Rate: 0x
FS[13:08] Cigar Box - 1.1.4.0
FS[13:08] ----- Flight Closed -----

Route Map